createdAt,value
2022-09-15T00:00:05.096Z,99.99
2022-09-15T00:01:05.099Z,99.99
2022-09-15T00:02:05.263Z,99.99
2022-09-15T00:03:05.137Z,99.99
2022-09-15T00:04:05.066Z,99.99
2022-09-15T00:05:05.061Z,99.99
2022-09-15T00:06:05.036Z,99.99
2022-09-15T00:07:05.034Z,99.99
2022-09-15T00:08:05.004Z,99.99
2022-09-15T00:09:05.013Z,99.99
2022-09-15T00:10:05.000Z,99.99
2022-09-15T00:11:04.997Z,99.99
2022-09-15T00:12:04.989Z,99.99
2022-09-15T00:13:04.975Z,99.99
2022-09-15T00:14:04.951Z,99.99
2022-09-15T00:15:04.927Z,99.99
2022-09-15T00:16:04.944Z,99.99
2022-09-15T00:17:04.959Z,99.99
2022-09-15T00:18:04.923Z,99.99
2022-09-15T00:19:04.878Z,99.99
2022-09-15T00:20:04.869Z,99.99
2022-09-15T00:21:04.882Z,99.99
2022-09-15T00:22:04.859Z,99.99
2022-09-15T00:23:04.878Z,99.99
2022-09-15T00:24:04.839Z,99.99
2022-09-15T00:25:04.812Z,99.99
2022-09-15T00:26:04.802Z,99.99
2022-09-15T00:27:04.820Z,99.99
2022-09-15T00:28:04.778Z,99.99
2022-09-15T00:29:04.781Z,99.99
2022-09-15T00:30:04.782Z,99.99
2022-09-15T00:31:04.807Z,99.99
2022-09-15T00:32:04.751Z,99.99
2022-09-15T00:33:04.740Z,99.99
2022-09-15T00:34:04.730Z,99.99
2022-09-15T00:35:04.730Z,99.99
2022-09-15T00:36:04.690Z,99.99
2022-09-15T00:37:04.682Z,99.99
2022-09-15T00:38:04.675Z,99.99
2022-09-15T00:39:04.684Z,99.99
2022-09-15T00:40:04.716Z,99.99
2022-09-15T00:41:04.646Z,99.99
2022-09-15T00:42:04.659Z,99.99
2022-09-15T00:43:04.607Z,99.99
2022-09-15T00:44:04.608Z,99.99
2022-09-15T00:45:04.585Z,99.99
2022-09-15T00:46:04.650Z,99.99
2022-09-15T00:47:18.840Z,99.99
2022-09-15T00:48:05.569Z,99.99
2022-09-15T00:49:04.546Z,99.99
2022-09-15T00:50:04.560Z,99.99
2022-09-15T00:51:04.550Z,99.99
2022-09-15T00:52:04.531Z,99.99
2022-09-15T00:53:04.498Z,99.99
2022-09-15T00:54:04.486Z,99.99
2022-09-15T00:55:04.478Z,99.99
2022-09-15T00:56:04.492Z,99.99
2022-09-15T00:57:04.466Z,99.99
2022-09-15T00:58:04.470Z,99.99
2022-09-15T00:59:04.426Z,99.99
2022-09-15T01:00:04.418Z,99.99
2022-09-15T01:01:04.456Z,99.99
2022-09-15T01:02:04.482Z,99.99
2022-09-15T01:03:04.390Z,99.99
2022-09-15T01:04:04.401Z,99.99
2022-09-15T01:05:04.359Z,99.99
2022-09-15T01:06:04.368Z,99.99
2022-09-15T01:07:04.364Z,99.99
2022-09-15T01:08:04.337Z,99.99
2022-09-15T01:09:04.366Z,99.99
2022-09-15T01:10:04.338Z,99.99
2022-09-15T01:11:04.291Z,99.99
2022-09-15T01:12:04.287Z,99.99
2022-09-15T01:13:04.269Z,99.99
2022-09-15T01:14:04.281Z,99.99
2022-09-15T01:15:04.283Z,99.99
2022-09-15T01:16:04.302Z,99.99
2022-09-15T01:17:04.241Z,99.99
2022-09-15T01:18:04.225Z,99.99
2022-09-15T01:19:04.214Z,99.99
2022-09-15T01:20:04.223Z,99.99
2022-09-15T01:21:04.187Z,99.99
2022-09-15T01:22:04.204Z,99.99
2022-09-15T01:23:04.161Z,99.99
2022-09-15T01:24:04.173Z,99.99
2022-09-15T01:25:04.182Z,99.99
2022-09-15T01:26:04.144Z,99.99
2022-09-15T01:27:24.132Z,99.99
2022-09-15T01:28:05.115Z,99.99
2022-09-15T01:29:04.103Z,99.99
2022-09-15T01:30:04.104Z,99.99
2022-09-15T01:31:04.090Z,99.99
2022-09-15T01:32:04.166Z,99.99
2022-09-15T01:33:04.150Z,99.99
2022-09-15T01:34:04.038Z,99.99
2022-09-15T01:35:04.064Z,99.99
2022-09-15T01:36:04.051Z,99.99
2022-09-15T01:37:04.014Z,99.99
2022-09-15T01:38:04.118Z,99.99
2022-09-15T01:39:03.980Z,99.99
2022-09-15T01:40:04.035Z,99.99
2022-09-15T01:41:03.972Z,99.99
2022-09-15T01:42:03.985Z,99.63
2022-09-15T01:43:03.969Z,99.99
2022-09-15T01:44:03.926Z,99.53
2022-09-15T01:45:03.917Z,99.99
2022-09-15T01:46:04.000Z,99.33
2022-09-15T01:47:03.894Z,98.93
2022-09-15T01:48:03.919Z,98.78
2022-09-15T01:49:03.892Z,99.48
2022-09-15T01:50:03.858Z,99.02
2022-09-15T01:51:03.859Z,99.28
2022-09-15T01:52:03.847Z,98.68
2022-09-15T01:53:03.840Z,98.58
2022-09-15T01:54:03.860Z,98.82
2022-09-15T01:55:03.806Z,99.28
2022-09-15T01:56:03.814Z,98.37
2022-09-15T01:57:03.784Z,98.37
2022-09-15T01:58:03.784Z,98.58
2022-09-15T01:59:03.768Z,98.42
2022-09-15T02:00:03.795Z,98.88
2022-09-15T02:01:03.798Z,98.88
2022-09-15T02:02:03.800Z,98.58
2022-09-15T02:03:03.730Z,99.38
2022-09-15T02:04:03.701Z,99.28
2022-09-15T02:05:03.710Z,99.22
2022-09-15T02:06:03.681Z,99.48
2022-09-15T02:07:03.671Z,99.53
2022-09-15T02:08:03.658Z,99.33
2022-09-15T02:09:03.688Z,99.02
2022-09-15T02:10:03.660Z,97.51
2022-09-15T02:11:03.633Z,97.71
2022-09-15T02:12:03.615Z,98.72
2022-09-15T02:13:03.604Z,98.58
2022-09-15T02:14:03.591Z,98.42
2022-09-15T02:15:03.605Z,98.72
2022-09-15T02:16:03.627Z,97.41
2022-09-15T02:17:03.572Z,97.21
2022-09-15T02:18:03.548Z,97.91
2022-09-15T02:19:03.542Z,97.31
2022-09-15T02:20:03.550Z,97.91
2022-09-15T02:21:03.545Z,97.71
2022-09-15T02:22:03.535Z,97.71
2022-09-15T02:23:03.516Z,97.71
2022-09-15T02:24:03.496Z,97.21
2022-09-15T02:25:03.471Z,96.70
2022-09-15T02:26:03.519Z,96.70
2022-09-15T02:27:03.455Z,97.81
2022-09-15T02:28:03.462Z,97.51
2022-09-15T02:29:03.426Z,97.21
2022-09-15T02:30:03.415Z,97.61
2022-09-15T02:31:03.404Z,97.41
2022-09-15T02:32:06.971Z,96.91
2022-09-15T02:33:03.440Z,96.70
2022-09-15T02:34:03.414Z,97.71
2022-09-15T02:35:03.421Z,96.50
2022-09-15T02:36:03.346Z,96.91
2022-09-15T02:37:03.347Z,97.71
2022-09-15T02:38:03.330Z,97.21
2022-09-15T02:39:03.329Z,96.30
2022-09-15T02:40:03.362Z,96.10
2022-09-15T02:41:03.301Z,95.29
2022-09-15T02:42:03.298Z,95.70
2022-09-15T02:43:03.327Z,96.10
2022-09-15T02:44:03.275Z,95.95
2022-09-15T02:45:03.256Z,95.49
2022-09-15T02:46:03.356Z,95.79
2022-09-15T02:47:03.229Z,95.59
2022-09-15T02:48:03.837Z,95.85
2022-09-15T02:49:03.227Z,96.10
2022-09-15T02:50:03.200Z,96.25
2022-09-15T02:51:03.195Z,95.04
2022-09-15T02:52:03.169Z,95.55
2022-09-15T02:53:03.162Z,94.99
2022-09-15T02:54:03.174Z,95.59
2022-09-15T02:55:03.169Z,95.65
2022-09-15T02:56:03.140Z,96.40
2022-09-15T02:57:03.113Z,96.20
2022-09-15T02:58:03.117Z,95.79
2022-09-15T02:59:03.093Z,95.04
2022-09-15T03:00:03.097Z,94.74
2022-09-15T03:01:03.169Z,95.25
2022-09-15T03:02:03.138Z,95.25
2022-09-15T03:03:03.045Z,95.25
2022-09-15T03:04:03.032Z,95.14
2022-09-15T03:05:03.025Z,95.35
2022-09-15T03:06:03.034Z,95.39
2022-09-15T03:07:03.014Z,95.49
2022-09-15T03:08:03.006Z,95.14
2022-09-15T03:09:02.977Z,95.55
2022-09-15T03:10:02.966Z,95.04
2022-09-15T03:11:02.964Z,94.84
2022-09-15T03:12:02.979Z,94.94
2022-09-15T03:13:02.955Z,94.94
2022-09-15T03:14:02.940Z,94.28
2022-09-15T03:15:02.911Z,95.25
2022-09-15T03:16:02.957Z,95.04
2022-09-15T03:17:02.904Z,94.44
2022-09-15T03:18:02.892Z,94.04
2022-09-15T03:19:02.888Z,94.54
2022-09-15T03:20:02.855Z,94.54
2022-09-15T03:21:02.845Z,94.04
2022-09-15T03:22:02.857Z,94.04
2022-09-15T03:23:02.845Z,94.34
2022-09-15T03:24:02.822Z,93.84
2022-09-15T03:25:02.819Z,93.73
2022-09-15T03:26:02.791Z,94.04
2022-09-15T03:27:02.806Z,93.84
2022-09-15T03:28:02.776Z,93.73
2022-09-15T03:29:02.764Z,94.09
2022-09-15T03:30:02.791Z,93.69
2022-09-15T03:31:02.799Z,93.18
2022-09-15T03:32:02.725Z,93.73
2022-09-15T03:33:02.735Z,93.13
2022-09-15T03:34:02.720Z,92.82
2022-09-15T03:35:02.704Z,92.62
2022-09-15T03:36:02.690Z,92.93
2022-09-15T03:37:02.666Z,93.02
2022-09-15T03:38:02.668Z,93.23
2022-09-15T03:39:02.674Z,94.34
2022-09-15T03:40:02.723Z,93.73
2022-09-15T03:41:02.651Z,93.33
2022-09-15T03:42:02.628Z,94.08
2022-09-15T03:43:02.613Z,93.73
2022-09-15T03:44:02.584Z,93.93
2022-09-15T03:45:02.585Z,94.44
2022-09-15T03:46:02.710Z,94.08
2022-09-15T03:47:02.573Z,93.98
2022-09-15T03:48:02.545Z,94.64
2022-09-15T03:49:02.533Z,93.88
2022-09-15T03:50:02.518Z,93.98
2022-09-15T03:51:02.525Z,94.99
2022-09-15T03:52:02.509Z,94.28
2022-09-15T03:53:02.497Z,94.59
2022-09-15T03:54:02.472Z,93.88
2022-09-15T03:55:02.518Z,94.48
2022-09-15T03:56:02.452Z,94.08
2022-09-15T03:57:02.467Z,94.48
2022-09-15T03:58:02.452Z,94.08
2022-09-15T03:59:02.417Z,94.08
2022-09-15T04:00:02.404Z,94.44
2022-09-15T04:01:02.460Z,93.84
2022-09-15T04:02:02.499Z,94.04
2022-09-15T04:03:02.388Z,94.13
2022-09-15T04:04:02.402Z,93.13
2022-09-15T04:05:02.384Z,93.88
2022-09-15T04:06:02.338Z,93.33
2022-09-15T04:07:02.353Z,93.93
2022-09-15T04:08:02.335Z,93.02
2022-09-15T04:09:02.320Z,93.93
2022-09-15T04:10:02.312Z,93.43
2022-09-15T04:11:02.284Z,93.63
2022-09-15T04:12:02.290Z,94.04
2022-09-15T04:13:02.263Z,94.24
2022-09-15T04:14:02.263Z,93.53
2022-09-15T04:15:02.281Z,93.02
2022-09-15T04:16:02.259Z,93.48
2022-09-15T04:17:02.217Z,93.43
2022-09-15T04:18:02.224Z,93.93
2022-09-15T04:19:02.203Z,92.72
2022-09-15T04:20:02.235Z,93.63
2022-09-15T04:21:02.206Z,94.13
2022-09-15T04:22:02.160Z,92.62
2022-09-15T04:23:02.156Z,93.02
2022-09-15T04:24:02.174Z,92.72
2022-09-15T04:25:02.146Z,93.13
2022-09-15T04:26:02.134Z,93.33
2022-09-15T04:27:02.121Z,93.63
2022-09-15T04:28:02.094Z,93.33
2022-09-15T04:29:04.466Z,93.07
2022-09-15T04:30:02.108Z,93.02
2022-09-15T04:31:02.071Z,93.17
2022-09-15T04:32:02.055Z,93.17
2022-09-15T04:33:02.037Z,93.07
2022-09-15T04:34:02.056Z,93.68
2022-09-15T04:35:02.018Z,94.08
2022-09-15T04:36:02.016Z,93.77
2022-09-15T04:37:02.028Z,92.97
2022-09-15T04:38:01.994Z,93.48
2022-09-15T04:39:01.970Z,93.37
2022-09-15T04:40:02.210Z,94.28
2022-09-15T04:41:01.947Z,93.37
2022-09-15T04:42:01.936Z,94.28
2022-09-15T04:43:01.930Z,93.01
2022-09-15T04:44:01.938Z,92.91
2022-09-15T04:45:01.954Z,92.81
2022-09-15T04:46:01.892Z,93.52
2022-09-15T04:47:01.939Z,93.12
2022-09-15T04:48:01.884Z,93.41
2022-09-15T04:49:01.865Z,93.32
2022-09-15T04:50:01.874Z,93.62
2022-09-15T04:51:01.848Z,92.91
2022-09-15T04:52:01.862Z,93.12
2022-09-15T04:53:01.825Z,92.91
2022-09-15T04:54:01.833Z,92.71
2022-09-15T04:55:01.825Z,93.41
2022-09-15T04:56:01.777Z,92.06
2022-09-15T04:57:01.767Z,92.81
2022-09-15T04:58:01.755Z,92.97
2022-09-15T04:59:04.157Z,92.77
2022-09-15T05:00:01.771Z,92.36
2022-09-15T05:01:01.811Z,92.26
2022-09-15T05:02:01.758Z,92.26
2022-09-15T05:03:01.735Z,91.96
2022-09-15T05:04:01.696Z,91.55
2022-09-15T05:05:01.697Z,91.96
2022-09-15T05:06:01.707Z,92.66
2022-09-15T05:07:01.654Z,92.36
2022-09-15T05:08:01.656Z,92.16
2022-09-15T05:09:02.924Z,92.16
2022-09-15T05:10:01.641Z,92.32
2022-09-15T05:11:01.626Z,92.62
2022-09-15T05:12:01.653Z,91.66
2022-09-15T05:13:01.589Z,92.12
2022-09-15T05:14:01.574Z,91.86
2022-09-15T05:15:01.569Z,91.91
2022-09-15T05:16:01.618Z,91.96
2022-09-15T05:17:01.577Z,92.72
2022-09-15T05:18:01.533Z,92.52
2022-09-15T05:19:01.530Z,91.82
2022-09-15T05:20:01.546Z,91.55
2022-09-15T05:21:01.517Z,91.21
2022-09-15T05:22:01.528Z,91.31
2022-09-15T05:23:01.503Z,92.12
2022-09-15T05:24:01.461Z,91.11
2022-09-15T05:25:01.475Z,91.31
2022-09-15T05:26:01.443Z,91.41
2022-09-15T05:27:01.443Z,91.31
2022-09-15T05:28:01.442Z,91.01
2022-09-15T05:29:01.454Z,91.51
2022-09-15T05:30:31.706Z,91.06
2022-09-15T05:31:02.459Z,92.07
2022-09-15T05:32:01.390Z,90.70
2022-09-15T05:33:01.377Z,90.70
2022-09-15T05:34:01.397Z,91.01
2022-09-15T05:35:01.339Z,90.77
2022-09-15T05:36:01.326Z,91.27
2022-09-15T05:37:01.319Z,91.17
2022-09-15T05:38:01.341Z,90.86
2022-09-15T05:39:01.320Z,91.11
2022-09-15T05:40:05.152Z,90.86
2022-09-15T05:41:02.269Z,90.97
2022-09-15T05:42:01.259Z,92.07
2022-09-15T05:43:01.280Z,90.86
2022-09-15T05:44:01.261Z,91.67
2022-09-15T05:45:01.249Z,91.17
2022-09-15T05:46:01.212Z,91.06
2022-09-15T05:47:01.304Z,90.66
2022-09-15T05:48:01.190Z,91.17
2022-09-15T05:49:01.220Z,90.97
2022-09-15T05:50:01.198Z,90.70
2022-09-15T05:51:01.184Z,90.77
2022-09-15T05:52:01.144Z,90.91
2022-09-15T05:53:01.136Z,90.46
2022-09-15T05:54:01.171Z,91.21
2022-09-15T05:55:01.126Z,90.06
2022-09-15T05:56:01.136Z,89.86
2022-09-15T05:57:01.138Z,90.97
2022-09-15T05:58:01.078Z,90.97
2022-09-15T05:59:01.065Z,91.17
2022-09-15T06:00:01.090Z,91.06
2022-09-15T06:01:01.060Z,90.97
2022-09-15T06:02:01.129Z,90.86
2022-09-15T06:03:01.060Z,90.06
2022-09-15T06:04:01.011Z,90.06
2022-09-15T06:05:01.005Z,90.16
2022-09-15T06:06:01.011Z,90.86
2022-09-15T06:07:01.006Z,89.86
2022-09-15T06:08:01.004Z,90.26
2022-09-15T06:09:01.253Z,89.75
2022-09-15T06:10:00.973Z,89.55
2022-09-15T06:11:00.969Z,90.97
2022-09-15T06:12:00.935Z,90.16
2022-09-15T06:13:00.989Z,89.95
2022-09-15T06:14:00.928Z,89.86
2022-09-15T06:15:00.885Z,89.81
2022-09-15T06:16:00.921Z,90.22
2022-09-15T06:17:00.872Z,90.11
2022-09-15T06:18:00.880Z,89.95
2022-09-15T06:19:00.858Z,89.21
2022-09-15T06:20:00.831Z,89.41
2022-09-15T06:21:00.835Z,89.61
2022-09-15T06:22:00.813Z,89.41
2022-09-15T06:23:00.810Z,88.90
2022-09-15T06:24:00.829Z,89.71
2022-09-15T06:25:00.792Z,89.11
2022-09-15T06:26:00.782Z,89.21
2022-09-15T06:27:00.751Z,88.90
2022-09-15T06:28:00.762Z,89.31
2022-09-15T06:29:00.746Z,88.66
2022-09-15T06:30:00.756Z,88.66
2022-09-15T06:31:00.710Z,89.67
2022-09-15T06:32:00.755Z,88.46
2022-09-15T06:33:00.687Z,88.96
2022-09-15T06:34:00.693Z,89.37
2022-09-15T06:35:00.703Z,89.47
2022-09-15T06:36:00.684Z,88.66
2022-09-15T06:37:00.643Z,89.47
2022-09-15T06:38:00.633Z,89.26
2022-09-15T06:39:00.618Z,88.86
2022-09-15T06:40:00.636Z,88.26
2022-09-15T06:41:00.627Z,88.26
2022-09-15T06:42:03.701Z,88.46
2022-09-15T06:43:00.573Z,88.86
2022-09-15T06:44:00.567Z,88.56
2022-09-15T06:45:00.585Z,89.26
2022-09-15T06:46:00.601Z,88.46
2022-09-15T06:47:00.558Z,88.16
2022-09-15T06:48:22.857Z,87.96
2022-09-15T06:49:01.537Z,88.32
2022-09-15T06:50:00.498Z,88.86
2022-09-15T06:51:00.503Z,88.36
2022-09-15T06:52:00.492Z,88.76
2022-09-15T06:53:00.496Z,88.96
2022-09-15T06:54:00.454Z,88.46
2022-09-15T06:55:01.435Z,88.56
2022-09-15T06:56:00.431Z,87.96
2022-09-15T06:57:00.470Z,88.16
2022-09-15T06:58:00.437Z,89.57
2022-09-15T06:59:00.423Z,88.26
2022-09-15T07:00:00.387Z,87.76
2022-09-15T07:01:00.375Z,88.16
2022-09-15T07:02:04.950Z,88.06
2022-09-15T07:03:00.518Z,88.46
2022-09-15T07:04:00.373Z,88.66
2022-09-15T07:05:00.329Z,89.47
2022-09-15T07:06:00.323Z,89.37
2022-09-15T07:07:00.339Z,89.57
2022-09-15T07:08:00.307Z,88.46
2022-09-15T07:09:00.340Z,89.57
2022-09-15T07:10:00.309Z,88.46
2022-09-15T07:11:00.335Z,88.66
2022-09-15T07:12:00.255Z,89.17
2022-09-15T07:13:00.255Z,89.26
2022-09-15T07:14:00.274Z,88.56
2022-09-15T07:15:00.249Z,88.56
2022-09-15T07:16:00.280Z,88.86
2022-09-15T07:17:00.194Z,89.57
2022-09-15T07:18:00.302Z,88.36
2022-09-15T07:19:00.206Z,89.57
2022-09-15T07:20:00.206Z,89.57
2022-09-15T07:21:00.174Z,89.97
2022-09-15T07:22:00.139Z,88.46
2022-09-15T07:23:00.129Z,88.46
2022-09-15T07:24:03.867Z,88.56
2022-09-15T07:25:01.123Z,88.16
2022-09-15T07:26:00.118Z,88.86
2022-09-15T07:27:00.109Z,88.46
2022-09-15T07:28:00.079Z,88.36
2022-09-15T07:29:00.087Z,88.66
2022-09-15T07:30:00.097Z,88.36
2022-09-15T07:31:00.066Z,88.26
2022-09-15T07:32:00.131Z,89.37
2022-09-15T07:33:00.053Z,88.12
2022-09-15T07:34:00.013Z,88.46
2022-09-15T07:35:00.071Z,87.82
2022-09-15T07:35:59.997Z,87.62
2022-09-15T07:36:59.983Z,87.92
2022-09-15T07:37:59.986Z,88.02
2022-09-15T07:38:59.996Z,87.47
2022-09-15T07:40:00.063Z,87.98
2022-09-15T07:40:59.933Z,87.31
2022-09-15T07:41:59.954Z,87.27
2022-09-15T07:42:59.936Z,87.62
2022-09-15T07:43:59.896Z,87.98
2022-09-15T07:44:59.886Z,86.87
2022-09-15T07:45:59.951Z,87.37
2022-09-15T07:46:59.860Z,88.28
2022-09-15T07:47:59.870Z,87.77
2022-09-15T07:48:59.862Z,88.18
2022-09-15T07:49:59.868Z,88.38
2022-09-15T07:50:59.830Z,87.98
2022-09-15T07:51:59.807Z,88.07
2022-09-15T07:52:59.900Z,87.57
2022-09-15T07:53:59.797Z,87.87
2022-09-15T07:54:59.810Z,89.39
2022-09-15T07:55:59.762Z,88.88
2022-09-15T07:56:59.752Z,87.02
2022-09-15T07:57:59.759Z,87.43
2022-09-15T07:58:59.828Z,88.03
2022-09-15T07:59:59.728Z,87.43
2022-09-15T08:00:59.828Z,86.83
2022-09-15T08:01:59.775Z,86.52
2022-09-15T08:02:59.699Z,86.43
2022-09-15T08:03:59.704Z,86.32
2022-09-15T08:04:59.673Z,86.93
2022-09-15T08:05:59.668Z,87.43
2022-09-15T08:06:59.667Z,87.39
2022-09-15T08:07:59.636Z,87.49
2022-09-15T08:09:01.010Z,86.58
2022-09-15T08:09:59.652Z,86.58
2022-09-15T08:10:59.603Z,86.79
2022-09-15T08:11:59.604Z,86.18
2022-09-15T08:12:59.571Z,86.28
2022-09-15T08:13:59.565Z,85.38
2022-09-15T08:14:59.565Z,85.28
2022-09-15T08:15:59.590Z,86.18
2022-09-15T08:16:59.554Z,85.48
2022-09-15T08:17:59.550Z,86.54
2022-09-15T08:18:59.505Z,86.14
2022-09-15T08:19:59.511Z,85.53
2022-09-15T08:20:59.481Z,85.33
2022-09-15T08:21:59.481Z,84.43
2022-09-15T08:22:59.493Z,85.74
2022-09-15T08:23:59.454Z,85.24
2022-09-15T08:24:59.453Z,85.53
2022-09-15T08:25:59.444Z,86.34
2022-09-15T08:26:59.419Z,85.14
2022-09-15T08:27:59.443Z,84.89
2022-09-15T08:28:59.465Z,84.94
2022-09-15T08:29:59.385Z,84.63
2022-09-15T08:30:59.409Z,86.54
2022-09-15T08:31:59.393Z,85.44
2022-09-15T08:32:59.385Z,85.03
2022-09-15T08:33:59.377Z,85.19
2022-09-15T08:34:59.374Z,85.30
2022-09-15T08:35:59.318Z,85.70
2022-09-15T08:36:59.325Z,84.19
2022-09-15T08:37:59.296Z,84.59
2022-09-15T08:38:59.327Z,84.39
2022-09-15T08:39:59.325Z,84.39
2022-09-15T08:40:59.327Z,85.39
2022-09-15T08:41:59.267Z,86.36
2022-09-15T08:42:59.244Z,86.36
2022-09-15T08:43:59.235Z,83.95
2022-09-15T08:44:59.273Z,84.45
2022-09-15T08:45:59.292Z,85.52
2022-09-15T08:46:59.195Z,84.35
2022-09-15T08:47:59.195Z,83.41
2022-09-15T08:49:02.795Z,82.37
2022-09-15T08:49:59.548Z,83.37
2022-09-15T08:50:59.159Z,82.37
2022-09-15T08:51:59.160Z,82.60
2022-09-15T08:52:59.133Z,82.37
2022-09-15T08:53:59.119Z,82.76
2022-09-15T08:54:59.120Z,81.60
2022-09-15T08:55:59.119Z,81.20
2022-09-15T08:56:59.097Z,82.06
2022-09-15T08:57:59.128Z,81.00
2022-09-15T08:58:59.059Z,80.96
2022-09-15T08:59:59.124Z,81.20
2022-09-15T09:00:59.049Z,80.66
2022-09-15T09:01:59.083Z,80.96
2022-09-15T09:02:59.070Z,79.96
2022-09-15T09:03:59.006Z,80.86
2022-09-15T09:04:59.073Z,81.40
2022-09-15T09:05:59.044Z,81.67
2022-09-15T09:06:58.995Z,81.06
2022-09-15T09:07:58.973Z,80.32
2022-09-15T09:08:59.009Z,81.46
2022-09-15T09:09:59.030Z,81.32
2022-09-15T09:10:58.929Z,80.32
2022-09-15T09:11:58.923Z,79.72
2022-09-15T09:12:58.938Z,80.18
2022-09-15T09:13:58.927Z,80.28
2022-09-15T09:14:58.920Z,80.18
2022-09-15T09:15:59.053Z,79.78
2022-09-15T09:16:58.860Z,78.94
2022-09-15T09:17:58.867Z,78.74
2022-09-15T09:18:58.864Z,79.04
2022-09-15T09:19:58.852Z,78.74
2022-09-15T09:20:58.815Z,78.74
2022-09-15T09:21:58.835Z,78.04
2022-09-15T09:22:58.873Z,78.04
2022-09-15T09:23:58.807Z,78.94
2022-09-15T09:24:58.783Z,79.30
2022-09-15T09:25:58.787Z,78.70
2022-09-15T09:26:58.753Z,78.10
2022-09-15T09:27:58.740Z,78.36
2022-09-15T09:28:58.760Z,78.06
2022-09-15T09:29:58.760Z,78.17
2022-09-15T09:30:58.751Z,78.06
2022-09-15T09:31:58.715Z,77.36
2022-09-15T09:32:58.682Z,78.27
2022-09-15T09:33:58.680Z,76.56
2022-09-15T09:34:58.670Z,76.03
2022-09-15T09:35:58.689Z,77.43
2022-09-15T09:36:58.654Z,77.47
2022-09-15T09:37:58.652Z,78.43
2022-09-15T09:38:58.617Z,77.93
2022-09-15T09:39:58.696Z,76.33
2022-09-15T09:41:02.039Z,75.93
2022-09-15T09:41:58.616Z,75.63
2022-09-15T09:43:06.689Z,75.73
2022-09-15T09:43:58.561Z,76.43
2022-09-15T09:44:58.549Z,74.73
2022-09-15T09:45:58.579Z,75.73
2022-09-15T09:46:58.561Z,75.73
2022-09-15T09:48:01.662Z,75.23
2022-09-15T09:48:58.512Z,74.43
2022-09-15T09:49:58.493Z,74.63
2022-09-15T09:50:58.482Z,74.43
2022-09-15T09:51:58.497Z,74.22
2022-09-15T09:52:58.469Z,75.23
2022-09-15T09:53:58.525Z,75.83
2022-09-15T09:54:58.438Z,75.33
2022-09-15T09:55:58.473Z,76.23
2022-09-15T09:56:58.455Z,74.93
2022-09-15T09:57:58.421Z,74.73
2022-09-15T09:58:58.411Z,75.73
2022-09-15T09:59:58.401Z,75.73
2022-09-15T10:00:58.458Z,74.59
2022-09-15T10:01:58.361Z,73.89
2022-09-15T10:02:58.350Z,74.49
2022-09-15T10:03:58.420Z,73.99
2022-09-15T10:04:58.440Z,73.69
2022-09-15T10:05:58.349Z,73.79
2022-09-15T10:06:58.305Z,74.39
2022-09-15T10:07:58.297Z,73.33
2022-09-15T10:08:58.314Z,72.92
2022-09-15T10:09:58.306Z,73.76
2022-09-15T10:10:58.300Z,74.16
2022-09-15T10:11:58.248Z,74.06
2022-09-15T10:12:58.288Z,74.60
2022-09-15T10:13:58.257Z,74.60
2022-09-15T10:14:58.235Z,75.50
2022-09-15T10:15:58.217Z,75.10
2022-09-15T10:16:58.237Z,75.13
2022-09-15T10:17:58.182Z,75.93
2022-09-15T10:18:58.169Z,75.93
2022-09-15T10:19:58.547Z,76.43
2022-09-15T10:20:58.179Z,75.74
2022-09-15T10:21:58.151Z,75.93
2022-09-15T10:22:58.150Z,76.04
2022-09-15T10:23:58.163Z,76.14
2022-09-15T10:24:58.129Z,76.14
2022-09-15T10:25:59.985Z,76.17
2022-09-15T10:26:58.096Z,76.47
2022-09-15T10:27:58.112Z,75.97
2022-09-15T10:28:58.061Z,76.78
2022-09-15T10:29:58.063Z,75.77
2022-09-15T10:30:58.042Z,76.21
2022-09-15T10:31:58.098Z,76.91
2022-09-15T10:32:58.027Z,76.51
2022-09-15T10:33:58.058Z,76.37
2022-09-15T10:34:57.994Z,76.98
2022-09-15T10:35:58.004Z,75.97
2022-09-15T10:36:57.973Z,75.97
2022-09-15T10:37:57.963Z,75.27
2022-09-15T10:38:58.003Z,74.87
2022-09-15T10:39:57.987Z,76.07
2022-09-15T10:40:57.935Z,76.37
2022-09-15T10:41:57.931Z,75.97
2022-09-15T10:42:57.914Z,76.87
2022-09-15T10:43:58.003Z,76.78
2022-09-15T10:44:57.911Z,76.98
2022-09-15T10:45:57.929Z,76.47
2022-09-15T10:46:57.862Z,76.17
2022-09-15T10:47:57.846Z,76.17
2022-09-15T10:48:57.856Z,76.47
2022-09-15T10:49:57.858Z,76.67
2022-09-15T10:50:57.864Z,76.57
2022-09-15T10:51:57.807Z,76.78
2022-09-15T10:52:57.792Z,76.47
2022-09-15T10:53:57.870Z,76.87
2022-09-15T10:54:57.785Z,76.54
2022-09-15T10:55:57.848Z,76.84
2022-09-15T10:56:57.747Z,76.54
2022-09-15T10:57:57.768Z,77.00
2022-09-15T10:58:57.725Z,76.17
2022-09-15T10:59:57.750Z,76.06
2022-09-15T11:00:57.759Z,76.13
2022-09-15T11:01:57.768Z,77.53
2022-09-15T11:02:57.681Z,75.19
2022-09-15T11:03:57.705Z,74.16
2022-09-15T11:04:57.694Z,72.76
2022-09-15T11:05:57.663Z,72.76
2022-09-15T11:06:57.647Z,73.96
2022-09-15T11:07:57.656Z,72.92
2022-09-15T11:08:57.619Z,72.92
2022-09-15T11:09:57.611Z,71.62
2022-09-15T11:10:57.596Z,72.56
2022-09-15T11:11:57.616Z,72.26
2022-09-15T11:12:57.596Z,72.52
2022-09-15T11:13:57.589Z,71.62
2022-09-15T11:14:57.562Z,70.03
2022-09-15T11:15:57.581Z,70.66
2022-09-15T11:16:57.534Z,70.96
2022-09-15T11:17:57.522Z,71.29
2022-09-15T11:18:57.530Z,72.63
2022-09-15T11:19:57.489Z,74.37
2022-09-15T11:20:57.498Z,76.24
2022-09-15T11:21:57.493Z,78.02
2022-09-15T11:22:57.490Z,80.40
2022-09-15T11:23:57.483Z,81.54
2022-09-15T11:24:57.521Z,85.44
2022-09-15T11:25:57.458Z,87.79
2022-09-15T11:26:57.425Z,89.24
2022-09-15T11:27:57.409Z,90.99
2022-09-15T11:28:57.395Z,93.05
2022-09-15T11:29:57.430Z,94.91
2022-09-15T11:30:57.437Z,97.07
2022-09-15T11:31:57.490Z,99.94
2022-09-15T11:32:58.186Z,99.99
2022-09-15T11:33:57.344Z,99.99
2022-09-15T11:34:57.337Z,99.99
2022-09-15T11:35:57.347Z,99.99
2022-09-15T11:36:57.325Z,99.99
2022-09-15T11:37:57.288Z,99.99
2022-09-15T11:38:57.279Z,99.99
2022-09-15T11:39:57.370Z,99.99
2022-09-15T11:40:57.273Z,99.99
2022-09-15T11:41:57.286Z,99.99
2022-09-15T11:42:57.235Z,99.99
2022-09-15T11:43:57.222Z,99.99
2022-09-15T11:44:57.214Z,99.99
2022-09-15T11:45:57.225Z,99.99
2022-09-15T11:46:57.270Z,99.99
2022-09-15T11:47:57.275Z,99.99
2022-09-15T11:48:57.171Z,99.99
2022-09-15T11:49:57.186Z,99.99
2022-09-15T11:50:57.146Z,99.99
2022-09-15T11:51:57.143Z,99.99
2022-09-15T11:52:57.135Z,99.99
2022-09-15T11:53:57.115Z,99.99
2022-09-15T11:54:57.137Z,99.99
2022-09-15T11:55:57.091Z,99.99
2022-09-15T11:56:57.081Z,99.99
2022-09-15T11:57:57.084Z,99.99
2022-09-15T11:58:57.092Z,99.99
2022-09-15T11:59:57.048Z,99.99
2022-09-15T12:00:57.049Z,99.99
2022-09-15T12:01:57.130Z,99.99
2022-09-15T12:02:57.101Z,99.99
2022-09-15T12:03:57.022Z,99.99
2022-09-15T12:04:57.018Z,99.99
2022-09-15T12:05:56.976Z,99.99
2022-09-15T12:06:57.094Z,99.99
2022-09-15T12:07:56.971Z,99.99
2022-09-15T12:08:56.953Z,99.99
2022-09-15T12:09:56.966Z,99.99
2022-09-15T12:10:56.922Z,99.99
2022-09-15T12:11:56.932Z,99.99
2022-09-15T12:12:56.903Z,99.99
2022-09-15T12:13:56.917Z,99.99
2022-09-15T12:14:56.924Z,99.99
2022-09-15T12:15:57.521Z,99.99
2022-09-15T12:16:56.856Z,99.99
2022-09-15T12:17:56.862Z,99.99
2022-09-15T12:18:56.857Z,99.99
2022-09-15T12:19:56.886Z,99.99
2022-09-15T12:20:56.830Z,99.99
2022-09-15T12:21:56.828Z,99.99
2022-09-15T12:22:56.803Z,99.99
2022-09-15T12:23:56.778Z,99.99
2022-09-15T12:25:00.622Z,99.99
2022-09-15T12:25:56.768Z,99.99
2022-09-15T12:26:56.771Z,99.99
2022-09-15T12:27:56.773Z,99.99
2022-09-15T12:28:56.728Z,99.99
2022-09-15T12:29:56.742Z,99.99
2022-09-15T12:30:56.771Z,99.99
2022-09-15T12:31:56.710Z,99.99
2022-09-15T12:32:56.711Z,99.99
2022-09-15T12:33:56.683Z,99.99
2022-09-15T12:34:56.674Z,99.99
2022-09-15T12:35:56.659Z,99.99
2022-09-15T12:36:56.706Z,99.99
2022-09-15T12:37:56.645Z,99.99
2022-09-15T12:38:56.644Z,99.99
2022-09-15T12:39:56.691Z,99.99
2022-09-15T12:40:56.587Z,99.99
2022-09-15T12:41:56.599Z,99.99
2022-09-15T12:42:56.581Z,99.99
2022-09-15T12:43:56.582Z,99.99
2022-09-15T12:44:56.545Z,99.99
2022-09-15T12:45:56.641Z,99.99
2022-09-15T12:46:56.582Z,99.99
2022-09-15T12:47:56.550Z,99.99
2022-09-15T12:48:56.515Z,99.99
2022-09-15T12:49:56.515Z,99.99
2022-09-15T12:50:56.519Z,99.99
2022-09-15T12:51:56.469Z,99.74